createdAt,value
2022-08-16T00:02:12.813Z,3.60
2022-08-16T00:04:41.240Z,4.03
2022-08-16T00:07:09.014Z,3.37
2022-08-16T00:09:37.863Z,3.37
2022-08-16T00:12:09.705Z,3.10
2022-08-16T00:14:38.846Z,3.20
2022-08-16T00:17:18.284Z,3.20
2022-08-16T00:19:46.621Z,3.60
2022-08-16T00:22:16.902Z,3.73
2022-08-16T00:24:51.373Z,3.80
2022-08-16T00:27:19.616Z,3.70
2022-08-16T00:30:00.780Z,3.43
2022-08-16T00:32:37.054Z,3.33
2022-08-16T00:35:13.293Z,3.97
2022-08-16T00:37:58.959Z,3.47
2022-08-16T00:40:43.570Z,3.43
2022-08-16T00:43:21.334Z,3.90
2022-08-16T00:46:00.504Z,4.23
2022-08-16T00:48:43.712Z,3.30
2022-08-16T00:51:17.500Z,3.90
2022-08-16T00:53:46.462Z,3.73
2022-08-16T00:56:57.845Z,3.63
2022-08-16T00:59:06.737Z,3.43
2022-08-16T01:01:36.054Z,4.13
2022-08-16T01:04:06.300Z,3.87
2022-08-16T01:07:01.460Z,3.77
2022-08-16T01:09:33.567Z,3.57
2022-08-16T01:12:02.879Z,3.57
2022-08-16T01:14:35.826Z,3.40
2022-08-16T01:17:08.419Z,3.60
2022-08-16T01:19:40.842Z,3.67
2022-08-16T01:22:49.965Z,3.83
2022-08-16T01:25:10.754Z,3.50
2022-08-16T01:27:43.038Z,3.80
2022-08-16T01:30:19.952Z,3.60
2022-08-16T01:33:01.284Z,3.70
2022-08-16T01:35:35.379Z,4.10
2022-08-16T01:38:19.659Z,3.43
2022-08-16T01:40:50.555Z,4.30
2022-08-16T01:43:18.818Z,4.13
2022-08-16T01:45:47.383Z,4.07
2022-08-16T01:48:28.568Z,3.90
2022-08-16T01:51:08.833Z,3.80
2022-08-16T01:53:44.203Z,4.30
2022-08-16T01:56:24.946Z,4.23
2022-08-16T01:58:54.616Z,4.40
2022-08-16T02:01:23.002Z,4.30
2022-08-16T02:03:53.953Z,4.17
2022-08-16T02:06:34.610Z,3.90
2022-08-16T02:09:07.317Z,4.60
2022-08-16T02:11:48.778Z,4.40
2022-08-16T02:14:22.292Z,3.97
2022-08-16T02:16:50.618Z,3.80
2022-08-16T02:19:21.349Z,4.00
2022-08-16T02:22:09.354Z,3.80
2022-08-16T02:24:45.823Z,4.13
2022-08-16T02:27:15.527Z,4.00
2022-08-16T02:29:44.491Z,3.80
2022-08-16T02:32:50.397Z,3.33
2022-08-16T02:35:03.116Z,4.20
2022-08-16T02:37:51.732Z,3.90
2022-08-16T02:40:19.626Z,4.30
2022-08-16T02:42:50.704Z,4.10
2022-08-16T02:45:24.796Z,3.90
2022-08-16T02:48:01.560Z,4.10
2022-08-16T02:50:54.029Z,4.03
2022-08-16T02:53:31.425Z,3.97
2022-08-16T02:56:00.560Z,3.90
2022-08-16T02:58:32.544Z,3.67
2022-08-16T03:01:01.287Z,4.30
2022-08-16T03:04:39.281Z,4.00
2022-08-16T03:06:42.285Z,4.20
2022-08-16T03:09:13.069Z,4.00
2022-08-16T03:11:42.127Z,3.60
2022-08-16T03:14:12.093Z,3.50
2022-08-16T03:16:58.829Z,4.37
2022-08-16T03:19:47.983Z,3.63
2022-08-16T03:22:27.817Z,3.90
2022-08-16T03:24:58.402Z,4.10
2022-08-16T03:27:31.029Z,4.40
2022-08-16T03:30:02.452Z,4.00
2022-08-16T03:32:44.935Z,4.30
2022-08-16T03:35:17.776Z,4.30
2022-08-16T03:38:02.570Z,4.70
2022-08-16T03:40:33.224Z,4.47
2022-08-16T03:43:20.642Z,4.50
2022-08-16T03:45:53.251Z,4.17
2022-08-16T03:48:36.057Z,4.87
2022-08-16T03:51:08.039Z,4.10
2022-08-16T03:53:38.429Z,4.93
2022-08-16T03:56:07.646Z,5.00
2022-08-16T03:58:46.543Z,4.63
2022-08-16T04:01:17.655Z,5.13
2022-08-16T04:03:45.494Z,5.40
2022-08-16T04:06:13.907Z,4.43
2022-08-16T04:08:43.732Z,4.90
2022-08-16T04:11:16.486Z,4.87
2022-08-16T04:14:01.250Z,4.57
2022-08-16T04:16:34.469Z,4.77
2022-08-16T04:19:04.439Z,4.00
2022-08-16T04:21:33.031Z,4.80
2022-08-16T04:24:01.397Z,4.43
2022-08-16T04:26:32.444Z,4.40
2022-08-16T04:29:21.679Z,4.50
2022-08-16T04:31:56.095Z,4.67
2022-08-16T04:34:27.537Z,4.83
2022-08-16T04:36:56.668Z,4.47
2022-08-16T04:39:25.224Z,4.33
2022-08-16T04:42:12.975Z,4.93
2022-08-16T04:44:54.066Z,4.63
2022-08-16T04:47:31.354Z,4.67
2022-08-16T04:50:00.160Z,4.27
2022-08-16T04:52:34.504Z,4.70
2022-08-16T04:55:08.286Z,4.03
2022-08-16T04:57:37.940Z,4.70
2022-08-16T05:00:32.035Z,4.70
2022-08-16T05:03:07.408Z,3.90
2022-08-16T05:05:44.998Z,4.37
2022-08-16T05:08:28.945Z,4.10
2022-08-16T05:11:00.055Z,4.17
2022-08-16T05:13:39.774Z,4.00
2022-08-16T05:16:10.036Z,4.00
2022-08-16T05:18:41.226Z,4.00
2022-08-16T05:21:11.247Z,3.70
2022-08-16T05:23:40.494Z,3.90
2022-08-16T05:26:19.595Z,3.53
2022-08-16T05:28:55.207Z,3.60
2022-08-16T05:31:23.727Z,3.60
2022-08-16T05:33:59.393Z,3.90
2022-08-16T05:36:33.850Z,3.90
2022-08-16T05:39:06.355Z,3.93
2022-08-16T05:41:45.549Z,3.97
2022-08-16T05:44:22.903Z,3.60
2022-08-16T05:46:53.312Z,3.47
2022-08-16T05:49:24.044Z,3.80
2022-08-16T05:51:51.859Z,3.63
2022-08-16T05:54:25.018Z,4.30
2022-08-16T05:56:55.657Z,4.40
2022-08-16T05:59:24.553Z,4.00
2022-08-16T06:01:55.164Z,3.80
2022-08-16T06:04:35.318Z,3.97
2022-08-16T06:07:08.843Z,5.20
2022-08-16T06:09:43.649Z,3.75
2022-08-16T06:12:27.929Z,3.80
2022-08-16T06:14:59.200Z,3.72
2022-08-16T06:17:42.712Z,3.83
2022-08-16T06:20:18.561Z,3.95
2022-08-16T06:22:58.482Z,3.70
2022-08-16T06:25:36.503Z,3.60
2022-08-16T06:28:16.610Z,3.65
2022-08-16T06:30:45.576Z,3.67
2022-08-16T06:33:19.886Z,3.72
2022-08-16T06:35:54.983Z,4.03
2022-08-16T06:38:34.026Z,4.40
2022-08-16T06:41:04.773Z,4.05
2022-08-16T06:43:34.997Z,4.32
2022-08-16T06:46:05.361Z,4.30
2022-08-16T06:48:33.942Z,3.63
2022-08-16T06:51:04.311Z,4.13
2022-08-16T06:53:35.522Z,4.32
2022-08-16T06:56:14.929Z,3.95
2022-08-16T06:58:52.264Z,3.92
2022-08-16T07:01:34.393Z,4.60
2022-08-16T07:04:11.876Z,5.07
2022-08-16T07:06:43.173Z,6.20
2022-08-16T07:09:11.767Z,3.83
2022-08-16T07:11:47.863Z,4.07
2022-08-16T07:14:24.240Z,4.47
2022-08-16T07:16:57.814Z,3.85
2022-08-16T07:19:48.330Z,4.38
2022-08-16T07:22:36.692Z,4.38
2022-08-16T07:25:04.351Z,4.82
2022-08-16T07:27:33.820Z,4.60
2022-08-16T07:30:39.250Z,4.40
2022-08-16T07:32:57.198Z,4.95
2022-08-16T07:35:25.700Z,5.03
2022-08-16T07:37:54.886Z,5.45
2022-08-16T07:40:49.133Z,4.40
2022-08-16T07:43:11.892Z,4.82
2022-08-16T07:45:42.222Z,4.55
2022-08-16T07:48:12.499Z,3.90
2022-08-16T07:50:58.401Z,4.25
2022-08-16T07:53:30.368Z,4.50
2022-08-16T07:56:00.115Z,4.10
2022-08-16T07:58:34.031Z,4.80
2022-08-16T08:01:05.621Z,4.25
2022-08-16T08:03:42.441Z,4.30
2022-08-16T08:06:13.424Z,4.53
2022-08-16T08:08:50.583Z,4.23
2022-08-16T08:11:21.463Z,4.47
2022-08-16T08:13:50.561Z,4.80
2022-08-16T08:16:19.890Z,5.80
2022-08-16T08:18:50.512Z,4.60
2022-08-16T08:21:27.309Z,5.00
2022-08-16T08:23:58.078Z,5.43
2022-08-16T08:26:26.283Z,4.60
2022-08-16T08:29:00.680Z,4.32
2022-08-16T08:31:29.054Z,4.83
2022-08-16T08:33:58.476Z,4.20
2022-08-16T08:36:33.414Z,5.00
2022-08-16T08:39:12.619Z,4.38
2022-08-16T08:41:42.568Z,4.75
2022-08-16T08:44:28.426Z,4.85
2022-08-16T08:47:01.442Z,4.50
2022-08-16T08:49:46.323Z,4.22
2022-08-16T08:52:34.684Z,3.88
2022-08-16T08:55:10.399Z,4.47
2022-08-16T08:57:40.583Z,4.57
2022-08-16T09:00:13.502Z,4.38
2022-08-16T09:02:44.471Z,4.28
2022-08-16T09:05:16.174Z,4.82
2022-08-16T09:08:01.829Z,4.03
2022-08-16T09:10:34.326Z,4.13
2022-08-16T09:13:08.112Z,4.30
2022-08-16T09:15:39.723Z,4.10
2022-08-16T09:18:24.745Z,4.95
2022-08-16T09:20:59.332Z,4.05
2022-08-16T09:23:29.407Z,4.03
2022-08-16T09:25:58.680Z,4.53
2022-08-16T09:29:14.835Z,3.78
2022-08-16T09:31:17.855Z,3.92
2022-08-16T09:33:45.922Z,4.45
2022-08-16T09:36:32.073Z,4.20
2022-08-16T09:39:02.097Z,3.92
2022-08-16T09:41:34.004Z,4.97
2022-08-16T09:45:12.879Z,4.40
2022-08-16T09:46:55.915Z,4.22
2022-08-16T09:49:36.829Z,4.68
2022-08-16T09:52:05.935Z,3.78
2022-08-16T09:54:33.939Z,4.25
2022-08-16T09:57:03.601Z,4.38
2022-08-16T09:59:38.449Z,4.50
2022-08-16T10:02:27.033Z,4.10
2022-08-16T10:04:55.642Z,3.72
2022-08-16T10:07:23.789Z,4.18
2022-08-16T10:09:54.864Z,4.45
2022-08-16T10:12:44.138Z,4.40
2022-08-16T10:15:15.416Z,4.18
2022-08-16T10:17:45.589Z,4.43
2022-08-16T10:20:31.588Z,4.03
2022-08-16T10:23:05.769Z,4.13
2022-08-16T10:27:18.380Z,4.07
2022-08-16T10:28:28.873Z,4.30
2022-08-16T10:30:58.790Z,4.18
2022-08-16T10:33:29.592Z,4.20
2022-08-16T10:36:03.806Z,4.00
2022-08-16T10:38:33.043Z,3.72
2022-08-16T10:41:04.458Z,4.40
2022-08-16T10:43:33.675Z,4.10
2022-08-16T10:46:01.562Z,3.60
2022-08-16T10:48:31.255Z,4.50
2022-08-16T10:51:00.170Z,4.20
2022-08-16T10:53:33.020Z,4.15
2022-08-16T10:56:02.750Z,4.13
2022-08-16T10:58:34.648Z,4.13
2022-08-16T11:03:54.518Z,3.72
2022-08-16T11:06:26.807Z,4.25
2022-08-16T11:14:32.176Z,4.30
2022-08-16T11:17:09.313Z,4.00
2022-08-16T11:22:47.254Z,3.92
2022-08-16T11:28:07.999Z,3.80
2022-08-16T11:30:38.538Z,3.60
2022-08-16T11:33:08.908Z,3.47
2022-08-16T11:35:43.767Z,3.80
2022-08-16T11:38:46.978Z,3.88
2022-08-16T11:41:04.010Z,3.67
2022-08-16T11:43:34.159Z,3.45
2022-08-16T11:46:43.327Z,3.95
2022-08-16T11:48:54.813Z,4.28
2022-08-16T11:51:22.693Z,4.05
2022-08-16T11:53:50.536Z,3.95
2022-08-16T11:56:19.952Z,4.28
2022-08-16T11:59:07.742Z,3.83
2022-08-16T12:01:44.581Z,3.88
2022-08-16T12:04:25.762Z,3.50
2022-08-16T12:06:54.751Z,3.53
2022-08-16T12:09:24.010Z,3.90
2022-08-16T12:11:53.498Z,3.35
2022-08-16T12:14:22.861Z,3.85
2022-08-16T12:16:55.207Z,3.67
2022-08-16T12:19:33.902Z,3.80
2022-08-16T12:22:05.974Z,3.50
2022-08-16T12:24:51.023Z,4.05
2022-08-16T12:27:23.176Z,3.83
2022-08-16T12:29:52.178Z,3.35
2022-08-16T12:32:35.786Z,3.33
2022-08-16T12:35:12.010Z,3.88
2022-08-16T12:37:40.009Z,4.00
2022-08-16T12:40:19.760Z,3.60
2022-08-16T12:42:54.100Z,3.70
2022-08-16T12:45:24.290Z,3.70
2022-08-16T12:48:32.817Z,3.38
2022-08-16T12:51:01.165Z,3.83
2022-08-16T12:53:33.512Z,3.72
2022-08-16T12:56:01.728Z,3.65
2022-08-16T12:58:48.660Z,3.72
2022-08-16T13:01:17.975Z,3.80
2022-08-16T13:03:46.641Z,3.60
2022-08-16T13:06:19.923Z,3.72
2022-08-16T13:08:48.431Z,3.85
2022-08-16T13:11:20.319Z,3.65
2022-08-16T13:13:54.715Z,3.35
2022-08-16T13:16:24.928Z,3.85
2022-08-16T13:18:55.147Z,3.83
2022-08-16T13:21:24.368Z,3.72
2022-08-16T13:23:55.152Z,3.65
2022-08-16T13:26:23.727Z,3.85
2022-08-16T13:28:51.707Z,3.78
2022-08-16T13:31:20.551Z,3.97
2022-08-16T13:33:48.465Z,3.67
2022-08-16T13:36:32.269Z,3.72
2022-08-16T13:39:06.583Z,3.42
2022-08-16T13:41:34.467Z,3.53
2022-08-16T13:44:04.218Z,3.92
2022-08-16T13:46:37.800Z,3.70
2022-08-16T13:49:06.828Z,3.60
2022-08-16T13:51:35.028Z,3.85
2022-08-16T13:54:08.441Z,3.58
2022-08-16T13:56:39.792Z,3.50
2022-08-16T13:59:19.707Z,3.60
2022-08-16T14:01:54.634Z,3.65
2022-08-16T14:04:26.123Z,3.70
2022-08-16T14:06:56.412Z,3.75
2022-08-16T14:09:27.317Z,3.75
2022-08-16T14:11:57.279Z,3.58
2022-08-16T14:14:28.698Z,3.60
2022-08-16T14:16:58.178Z,3.03
2022-08-16T14:19:27.855Z,3.75
2022-08-16T14:22:14.862Z,3.45
2022-08-16T14:24:45.261Z,3.78
2022-08-16T14:27:15.413Z,4.03
2022-08-16T14:29:43.364Z,3.55
2022-08-16T14:32:13.182Z,4.00
2022-08-16T14:34:49.959Z,3.35
2022-08-16T14:37:19.694Z,3.75
2022-08-16T14:39:52.202Z,3.78
2022-08-16T14:42:25.399Z,4.00
2022-08-16T14:44:54.189Z,3.70
2022-08-16T14:47:23.156Z,3.63
2022-08-16T14:49:52.320Z,3.85
2022-08-16T14:52:51.921Z,3.65
2022-08-16T14:55:13.375Z,3.10
2022-08-16T14:57:41.901Z,3.45
2022-08-16T15:00:13.123Z,3.70
2022-08-16T15:02:43.634Z,3.67
2022-08-16T15:05:15.199Z,3.40
2022-08-16T15:07:43.006Z,3.95
2022-08-16T15:10:24.055Z,3.67
2022-08-16T15:12:55.461Z,3.70
2022-08-16T15:15:25.352Z,3.78
2022-08-16T15:17:55.869Z,3.78
2022-08-16T15:20:29.447Z,3.63
2022-08-16T15:22:59.147Z,3.55
2022-08-16T15:25:31.084Z,3.45
2022-08-16T15:28:02.166Z,3.53
2022-08-16T15:30:47.827Z,3.58
2022-08-16T15:33:23.141Z,3.92
2022-08-16T15:35:57.822Z,3.90
2022-08-16T15:38:57.785Z,4.22
2022-08-16T15:41:54.449Z,3.58
2022-08-16T15:44:25.433Z,3.65
2022-08-16T15:46:58.707Z,3.67
2022-08-16T15:49:36.969Z,3.50
2022-08-16T15:52:07.665Z,3.90
2022-08-16T15:54:48.676Z,3.90
2022-08-16T15:57:23.930Z,3.88
2022-08-16T15:59:52.839Z,3.42
2022-08-16T16:02:29.462Z,3.72
2022-08-16T16:05:00.445Z,3.60
2022-08-16T16:07:30.297Z,3.83
2022-08-16T16:09:58.869Z,3.60
2022-08-16T16:15:18.346Z,3.67
2022-08-16T16:17:50.904Z,4.20
2022-08-16T16:20:19.781Z,3.50
2022-08-16T16:22:47.682Z,4.10
2022-08-16T16:25:16.139Z,3.85
2022-08-16T16:27:46.598Z,3.80
2022-08-16T16:30:38.077Z,3.60
2022-08-16T16:33:20.547Z,3.47
2022-08-16T16:35:55.408Z,3.50
2022-08-16T16:38:28.456Z,3.58
2022-08-16T16:40:56.227Z,3.90
2022-08-16T16:43:31.940Z,4.13
2022-08-16T16:46:02.014Z,3.97
2022-08-16T16:48:34.984Z,3.70
2022-08-16T16:51:09.414Z,4.00
2022-08-16T16:53:41.964Z,3.63
2022-08-16T16:56:19.498Z,3.58
2022-08-16T16:59:01.350Z,3.65
2022-08-16T17:01:57.778Z,3.08
2022-08-16T17:04:31.424Z,3.60
2022-08-16T17:07:00.020Z,3.35
2022-08-16T17:09:27.805Z,3.70
2022-08-16T17:11:56.043Z,3.70
2022-08-16T17:14:32.738Z,3.28
2022-08-16T17:17:08.351Z,3.88
2022-08-16T17:19:40.962Z,3.60
2022-08-16T17:22:14.778Z,3.33
2022-08-16T17:24:44.889Z,3.33
2022-08-16T17:27:32.373Z,3.90
2022-08-16T17:30:15.772Z,3.78
2022-08-16T17:32:50.162Z,3.65
2022-08-16T17:35:23.042Z,4.05
2022-08-16T17:37:52.532Z,3.70
2022-08-16T17:40:25.692Z,3.35
2022-08-16T17:43:13.274Z,3.90
2022-08-16T17:45:44.383Z,3.40
2022-08-16T17:48:13.244Z,3.70
2022-08-16T17:50:42.840Z,3.92
2022-08-16T17:53:11.889Z,3.50
2022-08-16T17:55:42.624Z,3.92
2022-08-16T17:58:23.346Z,3.45
2022-08-16T18:00:55.066Z,4.10
2022-08-16T18:04:03.264Z,3.88
2022-08-16T18:06:15.657Z,3.85
2022-08-16T18:08:43.554Z,3.30
2022-08-16T18:11:12.073Z,4.20
2022-08-16T18:13:43.008Z,4.00
2022-08-16T18:16:14.627Z,4.13
2022-08-16T18:18:42.655Z,3.80
2022-08-16T18:21:28.345Z,4.13
2022-08-16T18:23:56.244Z,3.70
2022-08-16T18:26:24.066Z,3.92
2022-08-16T18:28:52.005Z,4.05
2022-08-16T18:31:21.204Z,3.65
2022-08-16T18:33:49.423Z,4.15
2022-08-16T18:36:22.483Z,4.35
2022-08-16T18:38:50.720Z,4.45
2022-08-16T18:41:19.227Z,4.13
2022-08-16T18:44:22.346Z,4.00
2022-08-16T18:46:36.143Z,3.92
2022-08-16T18:49:04.058Z,4.10
2022-08-16T18:51:32.250Z,3.97
2022-08-16T18:54:00.222Z,4.32
2022-08-16T18:56:56.227Z,4.22
2022-08-16T18:59:15.940Z,4.18
2022-08-16T19:01:45.325Z,4.63
2022-08-16T19:04:54.878Z,4.55
2022-08-16T19:07:00.946Z,4.00
2022-08-16T19:09:28.726Z,4.40
2022-08-16T19:11:56.569Z,4.57
2022-08-16T19:14:29.954Z,4.07
2022-08-16T19:16:59.111Z,3.92
2022-08-16T19:19:26.922Z,4.38
2022-08-16T19:21:54.738Z,4.10
2022-08-16T19:24:22.543Z,4.43
2022-08-16T19:26:57.116Z,4.50
2022-08-16T19:29:25.062Z,4.40
2022-08-16T19:31:52.863Z,4.90
2022-08-16T19:34:22.030Z,4.50
2022-08-16T19:36:49.828Z,4.43
2022-08-16T19:39:19.249Z,4.67
2022-08-16T19:41:52.022Z,5.23
2022-08-16T19:44:22.160Z,6.87
2022-08-16T19:46:49.981Z,8.90
2022-08-16T19:49:17.963Z,8.47
2022-08-16T19:51:47.342Z,7.00
2022-08-16T19:54:15.917Z,5.47
2022-08-16T19:56:43.712Z,4.87
2022-08-16T19:59:21.051Z,4.70
2022-08-16T20:01:51.856Z,4.30
2022-08-16T20:04:21.423Z,5.13
2022-08-16T20:06:50.962Z,4.77
2022-08-16T20:09:20.820Z,4.13
2022-08-16T20:11:50.215Z,4.10
2022-08-16T20:14:24.360Z,4.00
2022-08-16T20:16:53.360Z,3.73
2022-08-16T20:19:21.203Z,4.13
2022-08-16T20:21:51.415Z,4.10
2022-08-16T20:24:36.190Z,4.13
2022-08-16T20:27:06.115Z,3.87
2022-08-16T20:29:34.298Z,4.50
2022-08-16T20:32:02.487Z,4.70
2022-08-16T20:34:30.291Z,4.10
2022-08-16T20:36:59.500Z,4.17
2022-08-16T20:39:27.360Z,4.17
2022-08-16T20:41:55.387Z,4.37
2022-08-16T20:44:25.047Z,4.03
2022-08-16T20:46:53.255Z,4.43
2022-08-16T20:49:21.066Z,4.10
2022-08-16T20:51:53.456Z,4.50
2022-08-16T20:54:25.790Z,4.30
2022-08-16T20:56:53.612Z,4.13
2022-08-16T20:59:21.644Z,4.20
2022-08-16T21:01:50.649Z,4.00
2022-08-16T21:04:19.699Z,4.47
2022-08-16T21:06:54.251Z,4.80
2022-08-16T21:09:25.532Z,4.33
2022-08-16T21:11:54.474Z,4.33
2022-08-16T21:14:22.599Z,4.53
2022-08-16T21:16:50.482Z,4.47
2022-08-16T21:19:18.479Z,4.93
2022-08-16T21:21:46.407Z,4.50
2022-08-16T21:24:14.538Z,4.50
2022-08-16T21:26:47.455Z,4.40
2022-08-16T21:29:24.892Z,4.60
2022-08-16T21:31:52.968Z,4.97
2022-08-16T21:34:20.760Z,4.80
2022-08-16T21:36:48.754Z,4.60
2022-08-16T21:39:16.523Z,4.97
2022-08-16T21:41:49.792Z,3.97
2022-08-16T21:44:17.564Z,4.87
2022-08-16T21:46:45.335Z,4.60
2022-08-16T21:49:13.139Z,4.47
2022-08-16T21:51:40.997Z,4.70
2022-08-16T21:54:08.991Z,4.73
2022-08-16T21:56:36.920Z,4.97
2022-08-16T21:59:10.821Z,4.90
2022-08-16T22:01:41.522Z,4.67
2022-08-16T22:04:37.678Z,4.93
2022-08-16T22:06:58.572Z,4.63
2022-08-16T22:09:26.500Z,4.30
2022-08-16T22:11:54.299Z,4.80
2022-08-16T22:14:23.423Z,4.80
2022-08-16T22:16:51.354Z,4.47
2022-08-16T22:19:19.191Z,4.57
2022-08-16T22:21:46.967Z,5.07
2022-08-16T22:24:14.776Z,5.50
2022-08-16T22:26:43.692Z,5.07
2022-08-16T22:29:13.990Z,5.10
2022-08-16T22:31:44.353Z,4.80
2022-08-16T22:34:12.812Z,5.17
2022-08-16T22:36:40.965Z,4.83
2022-08-16T22:39:10.699Z,4.97
2022-08-16T22:41:39.670Z,4.73
2022-08-16T22:44:08.572Z,5.10
2022-08-16T22:46:37.527Z,4.83
2022-08-16T22:49:07.714Z,5.30
2022-08-16T22:51:36.612Z,5.83
2022-08-16T22:54:34.321Z,4.80
2022-08-16T22:56:52.778Z,5.10
2022-08-16T22:59:20.563Z,5.20
2022-08-16T23:01:48.461Z,4.90
2022-08-16T23:04:18.078Z,5.13
2022-08-16T23:06:45.869Z,5.07
2022-08-16T23:09:13.679Z,5.40
2022-08-16T23:11:41.450Z,5.27
2022-08-16T23:14:09.809Z,5.57
2022-08-16T23:16:37.603Z,5.20
2022-08-16T23:19:08.260Z,5.07
2022-08-16T23:21:39.123Z,5.50
2022-08-16T23:24:07.350Z,5.80
2022-08-16T23:26:46.565Z,5.57
2022-08-16T23:29:23.771Z,5.30
2022-08-16T23:31:53.927Z,5.53
2022-08-16T23:34:21.921Z,5.63
2022-08-16T23:36:51.105Z,5.37
2022-08-16T23:39:18.926Z,5.97
2022-08-16T23:41:46.710Z,5.40
2022-08-16T23:44:56.047Z,5.30
2022-08-16T23:47:02.404Z,5.40
2022-08-16T23:49:59.557Z,5.10
2022-08-16T23:52:40.659Z,5.80
2022-08-16T23:55:09.494Z,5.53
2022-08-16T23:57:37.540Z,6.03
